createdAt,value
2023-05-13T00:01:32.208Z,14.9
2023-05-13T00:03:35.356Z,14.9
2023-05-13T00:07:41.327Z,14.9
2023-05-13T00:09:44.318Z,14.7
2023-05-13T00:11:47.388Z,14.8
2023-05-13T00:13:50.403Z,14.8
2023-05-13T00:15:56.562Z,14.7
2023-05-13T00:20:02.660Z,14.6
2023-05-13T00:23:08.749Z,14.7
2023-05-13T00:37:33.146Z,14.2
2023-05-13T00:39:36.210Z,14.2
2023-05-13T00:41:39.253Z,14.3
2023-05-13T00:58:09.795Z,13.7
2023-05-13T01:12:34.156Z,13.4
2023-05-13T01:16:40.246Z,13.3
2023-05-13T01:17:43.341Z,13.2
2023-05-13T01:19:46.358Z,13.2
2023-05-13T01:21:49.415Z,13.2
2023-05-13T01:25:58.628Z,13.1
2023-05-13T01:28:01.675Z,13
2023-05-13T01:30:04.685Z,13
2023-05-13T01:34:10.766Z,13
2023-05-13T01:36:13.793Z,12.9
2023-05-13T01:44:30.646Z,12.6
2023-05-13T01:46:33.755Z,12.7
2023-05-13T01:48:36.711Z,12.5
2023-05-13T01:50:39.731Z,12.7
2023-05-13T01:58:55.032Z,12.5
2023-05-13T02:05:04.172Z,12.3
2023-05-13T02:09:13.389Z,12.3
2023-05-13T02:11:16.428Z,12.2
2023-05-13T02:13:19.470Z,12.3
2023-05-13T02:14:22.533Z,12.2
2023-05-13T02:18:28.718Z,12.2
2023-05-13T02:22:37.860Z,12.1
2023-05-13T02:24:40.909Z,12.1
2023-05-13T02:28:47.004Z,11.9
2023-05-13T02:30:50.035Z,11.8
2023-05-13T02:32:53.080Z,11.9
2023-05-13T02:34:56.127Z,11.8
2023-05-13T02:37:02.251Z,11.8
2023-05-13T02:39:05.329Z,11.7
2023-05-13T02:41:08.475Z,11.6
2023-05-13T02:43:11.483Z,11.6
2023-05-13T02:45:14.551Z,11.7
2023-05-13T02:47:17.591Z,11.6
2023-05-13T02:49:20.619Z,11.6
2023-05-13T02:51:26.756Z,11.6
2023-05-13T02:53:29.814Z,11.5
2023-05-13T02:55:32.821Z,11.5
2023-05-13T02:57:35.897Z,11.4
2023-05-13T02:59:38.935Z,11.5
2023-05-13T03:01:42.023Z,11.4
2023-05-13T03:03:45.137Z,11.5
2023-05-13T03:05:51.357Z,11.3
2023-05-13T03:07:54.403Z,11.4
2023-05-13T03:09:57.472Z,11.4
2023-05-13T03:12:27.052Z,11.3
2023-05-13T03:14:30.114Z,11.2
2023-05-13T03:16:33.290Z,11.2
2023-05-13T03:18:39.644Z,11.2
2023-05-13T03:20:42.736Z,11.2
2023-05-13T03:22:45.835Z,11.2
2023-05-13T03:26:52.157Z,11.1
2023-05-13T03:28:55.256Z,11.1
2023-05-13T03:35:07.889Z,11
2023-05-13T03:41:17.379Z,10.9
2023-05-13T03:43:20.473Z,11
2023-05-13T03:45:23.575Z,10.9
2023-05-13T03:47:29.968Z,10.8
2023-05-13T03:49:33.113Z,10.8
2023-05-13T03:51:36.231Z,10.9
2023-05-13T03:55:42.496Z,10.8
2023-05-13T03:57:45.646Z,10.8
2023-05-13T03:59:48.800Z,10.7
2023-05-13T04:01:55.171Z,10.8
2023-05-13T04:03:58.278Z,10.8
2023-05-13T04:06:01.396Z,10.8
2023-05-13T04:07:04.580Z,10.8
2023-05-13T04:11:10.852Z,10.9
2023-05-13T04:13:13.976Z,10.9
2023-05-13T04:15:20.313Z,10.8
2023-05-13T04:17:23.464Z,10.9
2023-05-13T04:19:26.607Z,10.9
2023-05-13T04:21:29.721Z,10.9
2023-05-13T04:23:32.854Z,10.9
2023-05-13T04:27:39.099Z,10.9
2023-05-13T04:29:45.422Z,10.9
2023-05-13T04:31:48.606Z,11
2023-05-13T04:33:51.669Z,11
2023-05-13T04:35:54.811Z,11
2023-05-13T04:37:57.947Z,11.1
2023-05-13T04:40:01.040Z,11.1
2023-05-13T04:42:04.149Z,11.1
2023-05-13T04:44:10.510Z,11.2
2023-05-13T04:46:13.706Z,11.1
2023-05-13T04:48:16.774Z,11.2
2023-05-13T04:52:23.052Z,11.4
2023-05-13T04:56:29.330Z,11.2
2023-05-13T04:58:35.659Z,11.3
2023-05-13T05:00:38.761Z,11.3
2023-05-13T05:02:41.965Z,11.3
2023-05-13T05:03:45.117Z,11.2
2023-05-13T05:07:51.341Z,11.3
2023-05-13T05:40:51.168Z,11.9
2023-05-13T05:44:57.412Z,11.9
2023-05-13T05:53:09.672Z,12.1
2023-05-13T05:55:15.827Z,12.1
2023-05-13T05:57:18.856Z,12.2
2023-05-13T05:59:21.920Z,12.6
2023-05-13T06:00:24.993Z,12.9
2023-05-13T06:02:28.154Z,13.1
2023-05-13T06:04:31.104Z,13.7
2023-05-13T06:06:34.157Z,14
2023-05-13T06:10:43.326Z,14.5
2023-05-13T06:14:49.366Z,14.6
2023-05-13T06:18:55.455Z,14.5
2023-05-13T06:20:58.489Z,14
2023-05-13T06:23:04.608Z,14
2023-05-13T06:25:07.666Z,13.9
2023-05-13T06:31:16.822Z,15
2023-05-13T06:33:19.844Z,15.1
2023-05-13T06:35:22.817Z,15.2
2023-05-13T06:37:28.956Z,15.4
2023-05-13T06:39:31.975Z,15.7
2023-05-13T06:41:35.000Z,15.9
2023-05-13T06:47:44.133Z,15.9
2023-05-13T06:53:56.213Z,16.2
2023-05-13T07:00:26.183Z,16.5
2023-05-13T07:02:29.202Z,16.8
2023-05-13T07:08:41.283Z,16.9
2023-05-13T07:10:44.292Z,17
2023-05-13T07:14:50.289Z,17.2
2023-05-13T07:16:53.333Z,18
2023-05-13T07:18:59.451Z,18
2023-05-13T07:21:02.415Z,17.8
2023-05-13T07:23:05.361Z,17.9
2023-05-13T07:25:08.389Z,17.3
2023-05-13T07:27:11.372Z,17.3
2023-05-13T07:29:14.383Z,18.2
2023-05-13T07:31:17.498Z,19
2023-05-13T07:33:23.476Z,19.7
2023-05-13T07:35:26.432Z,19.8
2023-05-13T07:37:29.432Z,20.2
2023-05-13T07:39:33.996Z,20.4
2023-05-13T07:41:36.954Z,20.9
2023-05-13T07:43:39.904Z,20.9
2023-05-13T07:47:49.020Z,21.3
2023-05-13T07:49:51.934Z,21.2
2023-05-13T07:51:54.899Z,21.8
2023-05-13T07:52:57.966Z,21.7
2023-05-13T07:59:06.826Z,21.7
2023-05-13T08:01:12.947Z,22.4
2023-05-13T08:03:16.056Z,22.4
2023-05-13T08:05:18.860Z,22.9
2023-05-13T08:11:27.672Z,24.7
2023-05-13T08:13:30.640Z,25.1
2023-05-13T08:15:36.715Z,25
2023-05-13T08:17:39.655Z,24.8
2023-05-13T08:19:42.611Z,25.2
2023-05-13T08:21:45.546Z,25.1
2023-05-13T08:23:48.463Z,24.2
2023-05-13T08:25:51.417Z,24.1
2023-05-13T08:27:54.331Z,24.5
2023-05-13T08:30:00.371Z,24.9
2023-05-13T08:32:03.378Z,24.6
2023-05-13T08:36:09.110Z,24.7
2023-05-13T08:38:12.026Z,24.6
2023-05-13T08:40:14.929Z,24.6
2023-05-13T08:42:17.857Z,25.3
2023-05-13T08:44:23.883Z,24.7
2023-05-13T08:46:26.879Z,24.8
2023-05-13T08:48:29.715Z,25.3
2023-05-13T08:49:32.724Z,25.1
2023-05-13T08:51:35.602Z,24.8
2023-05-13T08:53:38.528Z,24.5
2023-05-13T08:55:41.467Z,24
2023-05-13T08:57:47.403Z,24.5
2023-05-13T09:10:04.727Z,24.3
2023-05-13T09:12:10.738Z,24.1
2023-05-13T09:14:13.587Z,24.1
2023-05-13T09:16:16.468Z,23.9
2023-05-13T09:18:19.640Z,23.9
2023-05-13T09:20:22.194Z,24.3
2023-05-13T09:22:25.195Z,23.9
2023-05-13T09:26:34.039Z,24.4
2023-05-13T09:28:36.883Z,24.7
2023-05-13T09:30:39.714Z,24.8
2023-05-13T09:32:42.617Z,23.9
2023-05-13T09:34:45.426Z,23.9
2023-05-13T09:36:49.689Z,24
2023-05-13T09:38:51.078Z,24.1
2023-05-13T09:40:57.090Z,24.1
2023-05-13T09:42:59.813Z,23.9
2023-05-13T09:45:02.654Z,23.7
2023-05-13T09:46:05.609Z,23
2023-05-13T09:48:08.341Z,22.7
2023-05-13T09:50:11.133Z,23
2023-05-13T09:52:13.949Z,23.2
2023-05-13T09:56:22.727Z,23.2
2023-05-13T10:00:32.582Z,23.8
2023-05-13T10:02:31.162Z,23.9
2023-05-13T10:04:33.951Z,24
2023-05-13T10:08:42.762Z,24.3
2023-05-13T10:10:45.667Z,24
2023-05-13T10:12:48.345Z,23.8
2023-05-13T10:16:54.018Z,23.4
2023-05-13T10:18:56.824Z,23.4
2023-05-13T10:20:59.607Z,23.6
2023-05-13T10:23:05.538Z,23.8
2023-05-13T10:25:08.319Z,23.8
2023-05-13T10:27:11.161Z,24
2023-05-13T10:31:16.788Z,24.2
2023-05-13T10:35:22.393Z,24.8
2023-05-13T10:37:28.343Z,24.4
2023-05-13T10:39:31.183Z,24.5
2023-05-13T10:46:05.772Z,23.8
2023-05-13T10:48:08.672Z,24.1
2023-05-13T10:50:14.520Z,24
2023-05-13T10:56:22.973Z,24.5
2023-05-13T10:58:25.822Z,24.6
2023-05-13T11:00:28.652Z,24.6
2023-05-13T11:02:31.544Z,24.4
2023-05-13T11:04:37.458Z,25.4
2023-05-13T11:08:43.084Z,24.9
2023-05-13T11:10:45.912Z,25
2023-05-13T11:12:48.718Z,24.8
2023-05-13T11:14:51.505Z,25.2
2023-05-13T11:16:54.196Z,25
2023-05-13T11:21:05.071Z,24.8
2023-05-13T11:23:05.538Z,25.1
2023-05-13T11:29:13.591Z,25.5
2023-05-13T11:31:16.283Z,25.4
2023-05-13T11:33:21.963Z,25.7
2023-05-13T11:35:24.616Z,25.9
2023-05-13T11:37:27.263Z,25.8
2023-05-13T11:38:30.122Z,26
2023-05-13T11:40:32.733Z,25.7
2023-05-13T11:42:35.356Z,25.8
2023-05-13T11:44:38.004Z,26
2023-05-13T11:46:43.638Z,26
2023-05-13T11:48:46.271Z,25.8
2023-05-13T11:50:48.945Z,26.1
2023-05-13T11:52:51.452Z,26.1
2023-05-13T11:54:54.144Z,25.8
2023-05-13T11:56:56.626Z,25.8
2023-05-13T11:58:59.200Z,25.5
2023-05-13T12:01:04.856Z,25.6
2023-05-13T12:03:07.436Z,25.6
2023-05-13T12:05:10.057Z,25.4
2023-05-13T12:07:12.514Z,25.5
2023-05-13T12:09:15.131Z,25.7
2023-05-13T12:11:17.642Z,25.6
2023-05-13T12:13:20.176Z,26
2023-05-13T12:15:26.105Z,25.8
2023-05-13T12:19:30.902Z,25.6
2023-05-13T12:21:33.450Z,25.5
2023-05-13T12:23:36.002Z,25.5
2023-05-13T12:25:38.577Z,25.6
2023-05-13T12:27:41.088Z,25.5
2023-05-13T12:29:46.705Z,25.6
2023-05-13T12:33:51.743Z,25.8
2023-05-13T12:34:54.553Z,25.9
2023-05-13T12:36:57.140Z,26.1
2023-05-13T12:39:00.636Z,26
2023-05-13T12:41:02.122Z,26
2023-05-13T12:45:10.191Z,26.4
2023-05-13T12:49:15.202Z,26.1
2023-05-13T13:01:33.368Z,26.8
2023-05-13T13:07:40.605Z,25.8
2023-05-13T13:09:43.081Z,26.1
2023-05-13T13:11:48.633Z,25.7
2023-05-13T13:13:51.079Z,25.5
2023-05-13T13:15:53.573Z,26
2023-05-13T13:17:56.123Z,26.3
2023-05-13T13:19:58.498Z,25.9
2023-05-13T13:22:00.993Z,25.9
2023-05-13T13:24:03.476Z,25.8
2023-05-13T13:26:08.994Z,25.8
2023-05-13T13:28:11.472Z,25.9
2023-05-13T13:30:13.973Z,25.9
2023-05-13T13:31:16.752Z,25.6
2023-05-13T13:33:20.787Z,25.6
2023-05-13T13:35:23.372Z,25.5
2023-05-13T13:43:36.166Z,26.1
2023-05-13T13:47:41.166Z,26.6
2023-05-13T13:57:56.518Z,26.5
2023-05-13T13:59:59.015Z,27.1
2023-05-13T14:04:04.036Z,27.4
2023-05-13T14:06:06.480Z,27.1
2023-05-13T14:08:12.032Z,27.8
2023-05-13T14:10:14.511Z,27.9
2023-05-13T14:12:17.009Z,27.9
2023-05-13T14:14:19.460Z,28.2
2023-05-13T14:16:22.029Z,27.9
2023-05-13T14:20:26.864Z,27.9
2023-05-13T14:24:34.872Z,27.7
2023-05-13T14:26:37.335Z,28.4
2023-05-13T14:29:05.810Z,27.9
2023-05-13T14:31:08.251Z,28
2023-05-13T14:33:10.737Z,28
2023-05-13T14:35:16.227Z,28.4
2023-05-13T14:39:21.153Z,28.7
2023-05-13T14:41:23.610Z,28.7
2023-05-13T14:43:26.036Z,28.9
2023-05-13T14:45:28.521Z,29.3
2023-05-13T14:49:36.499Z,29.4
2023-05-13T14:51:38.961Z,29
2023-05-13T14:57:46.317Z,29.1
2023-05-13T15:03:56.749Z,28.9
2023-05-13T15:05:59.228Z,28.6
2023-05-13T15:08:01.702Z,28.6
2023-05-13T15:10:04.129Z,29.5
2023-05-13T15:12:06.590Z,29.8
2023-05-13T15:16:11.568Z,29.8
2023-05-13T15:20:19.536Z,30.1
2023-05-13T15:22:21.968Z,29.2
2023-05-13T15:23:24.753Z,28.5
2023-05-13T15:25:27.229Z,28.1
2023-05-13T15:27:29.699Z,28.5
2023-05-13T15:29:32.167Z,29.3
2023-05-13T15:31:37.708Z,30
2023-05-13T15:33:40.207Z,29.9
2023-05-13T15:37:45.141Z,29.1
2023-05-13T15:43:52.591Z,28.1
2023-05-13T15:48:00.677Z,28.7
2023-05-13T15:54:08.185Z,29
2023-05-13T15:58:13.193Z,29.4
2023-05-13T16:00:18.813Z,29.6
2023-05-13T16:02:21.301Z,29.4
2023-05-13T16:06:26.368Z,28.6
2023-05-13T16:08:28.894Z,26.9
2023-05-13T16:10:31.409Z,27.3
2023-05-13T16:14:39.570Z,27.3
2023-05-13T16:18:44.734Z,25.1
2023-05-13T16:19:47.481Z,24.5
2023-05-13T16:21:50.068Z,24.1
2023-05-13T16:23:52.629Z,24
2023-05-13T16:25:55.256Z,24.1
2023-05-13T16:28:01.118Z,24.3
2023-05-13T16:30:03.857Z,24.1
2023-05-13T16:34:09.381Z,24.1
2023-05-13T16:38:15.010Z,24.2
2023-05-13T16:44:26.664Z,23.6
2023-05-13T16:46:29.562Z,23.6
2023-05-13T16:48:32.415Z,23.5
2023-05-13T16:50:35.279Z,23.4
2023-05-13T16:52:38.195Z,23.3
2023-05-13T16:54:41.060Z,23.4
2023-05-13T16:56:47.104Z,23.3
2023-05-13T16:58:50.034Z,23.3
2023-05-13T17:00:52.968Z,23.3
2023-05-13T17:02:55.867Z,23.2
2023-05-13T17:04:58.726Z,23.2
2023-05-13T17:07:01.688Z,23.3
2023-05-13T17:09:04.596Z,23.2
2023-05-13T17:11:10.674Z,23
2023-05-13T17:15:16.574Z,23
2023-05-13T17:16:19.618Z,22.9
2023-05-13T17:20:25.466Z,23
2023-05-13T17:22:28.438Z,23.1
2023-05-13T17:32:46.327Z,22.6
2023-05-13T17:34:49.235Z,22.7
2023-05-13T17:36:52.196Z,22.6
2023-05-13T17:38:58.291Z,22.5
2023-05-13T17:41:01.238Z,22.5
2023-05-13T17:43:04.183Z,22.5
2023-05-13T17:47:10.124Z,22.4
2023-05-13T17:51:16.057Z,22.3
2023-05-13T17:53:22.156Z,22.2
2023-05-13T17:55:25.141Z,22.2
2023-05-13T18:01:34.148Z,22
2023-05-13T18:03:37.021Z,21.9
2023-05-13T18:05:40.002Z,21.7
2023-05-13T18:07:46.094Z,21.7
2023-05-13T18:09:53.147Z,21.7
2023-05-13T18:14:15.223Z,21.5
2023-05-13T18:22:30.250Z,21.4
2023-05-13T18:24:33.252Z,21.3
2023-05-13T18:28:39.240Z,21.3
2023-05-13T18:30:42.211Z,21
2023-05-13T18:32:45.253Z,21.1
2023-05-13T18:36:54.332Z,20.7
2023-05-13T18:38:57.296Z,20.7
2023-05-13T18:41:00.322Z,20.6
2023-05-13T18:43:03.290Z,20.5
2023-05-13T18:45:06.294Z,20.5
2023-05-13T18:47:09.280Z,20.5
2023-05-13T18:51:18.380Z,20.3
2023-05-13T18:55:24.383Z,20.2
2023-05-13T18:57:27.400Z,20
2023-05-13T18:59:30.410Z,20.1
2023-05-13T19:01:33.531Z,19.9
2023-05-13T19:07:45.576Z,19.9
2023-05-13T19:08:48.593Z,19.7
2023-05-13T19:10:51.625Z,19.7
2023-05-13T19:12:54.660Z,19.6
2023-05-13T19:14:57.653Z,19.7
2023-05-13T19:17:03.838Z,19.6
2023-05-13T19:19:06.912Z,19.5
2023-05-13T19:23:12.848Z,19.5
2023-05-13T19:25:15.869Z,19.3
2023-05-13T19:27:20.444Z,19.4
2023-05-13T19:29:23.401Z,19.2
2023-05-13T19:31:29.601Z,19.2
2023-05-13T19:33:32.575Z,19.1
2023-05-13T19:35:35.588Z,19.1
2023-05-13T19:41:44.658Z,18.9
2023-05-13T19:43:47.694Z,18.9
2023-05-13T20:05:27.176Z,18.5
2023-05-13T20:07:30.221Z,18.4
2023-05-13T20:09:33.252Z,18.5
2023-05-13T20:15:45.387Z,18.2
2023-05-13T20:17:48.522Z,18.1
2023-05-13T20:19:51.434Z,18.2
2023-05-13T20:23:57.471Z,18
2023-05-13T20:26:00.488Z,18
2023-05-13T20:28:06.588Z,17.7
2023-05-13T20:36:18.666Z,17.8
2023-05-13T20:38:21.685Z,17.6
2023-05-13T20:40:25.026Z,17.7
2023-05-13T20:42:30.841Z,17.6
2023-05-13T20:44:33.875Z,17.4
2023-05-13T20:46:36.942Z,17.6
2023-05-13T20:48:39.924Z,17.3
2023-05-13T20:50:42.954Z,17.3
2023-05-13T20:52:45.982Z,17.3
2023-05-13T20:54:49.012Z,17.2
2023-05-13T20:56:55.153Z,17.2
2023-05-13T20:58:58.188Z,17.1
2023-05-13T21:01:01.254Z,17
2023-05-13T21:02:04.275Z,17
2023-05-13T21:06:10.354Z,17
2023-05-13T21:10:19.499Z,16.7
2023-05-13T21:12:22.543Z,16.7
2023-05-13T21:16:28.712Z,16.7
2023-05-13T21:18:31.641Z,16.8
2023-05-13T21:39:08.222Z,16.2
2023-05-13T21:41:11.253Z,16.4
2023-05-13T21:43:14.287Z,16.3
2023-05-13T21:45:17.324Z,16.1
2023-05-13T21:47:20.365Z,16.2
2023-05-13T21:57:38.683Z,16
2023-05-13T22:00:08.082Z,16.1
2023-05-13T22:02:11.145Z,16
2023-05-13T22:06:20.300Z,15.9
2023-05-13T22:08:23.357Z,15.8
2023-05-13T22:14:32.504Z,15.7
2023-05-13T22:16:35.659Z,15.7
2023-05-13T22:20:44.759Z,15.6
2023-05-13T22:22:47.825Z,15.6
2023-05-13T22:24:50.923Z,15.5
2023-05-13T22:45:24.538Z,15.2
2023-05-13T22:49:33.761Z,15.2
2023-05-13T22:54:42.922Z,15.2
2023-05-13T23:00:52.137Z,14.9
2023-05-13T23:02:58.322Z,14.9
2023-05-13T23:07:04.420Z,14.9
2023-05-13T23:09:07.498Z,14.9
2023-05-13T23:11:10.524Z,14.7
2023-05-13T23:13:13.593Z,14.8
2023-05-13T23:15:16.668Z,14.6
2023-05-13T23:17:22.814Z,14.5
2023-05-13T23:19:25.865Z,14.2
2023-05-13T23:21:28.940Z,14.1
2023-05-13T23:27:38.130Z,14
2023-05-13T23:29:41.184Z,13.9
2023-05-13T23:31:47.384Z,13.7
2023-05-13T23:33:50.411Z,13.8
2023-05-13T23:35:53.497Z,13.7
2023-05-13T23:37:56.564Z,13.6
2023-05-13T23:39:59.590Z,13.6
2023-05-13T23:44:05.740Z,13.5
2023-05-13T23:46:11.972Z,13.4
2023-05-13T23:50:18.091Z,13.4
2023-05-13T23:51:21.167Z,13.2
2023-05-13T23:53:24.204Z,13.3
2023-05-13T23:55:27.308Z,13.3
2023-05-13T23:57:30.358Z,13.2
2023-05-13T23:59:36.521Z,13.2
